createdAt,value
2019-04-27T00:02:23.045Z,99612.73
2019-04-27T00:04:59.601Z,99608.66
2019-04-27T00:07:36.644Z,99607.42
2019-04-27T00:10:27.004Z,99605.53
2019-04-27T00:12:53.073Z,99597.47
2019-04-27T00:15:34.737Z,99603.95
2019-04-27T00:18:23.891Z,99598.16
2019-04-27T00:21:07.422Z,99601.23
2019-04-27T00:23:37.244Z,99592.80
2019-04-27T00:26:06.934Z,99590.20
2019-04-27T00:28:37.050Z,99589.97
2019-04-27T00:31:06.765Z,99583.81
2019-04-27T00:33:36.737Z,99581.63
2019-04-27T00:36:14.381Z,99577.64
2019-04-27T00:38:53.514Z,99579.83
2019-04-27T00:41:24.256Z,99570.53
2019-04-27T00:43:54.059Z,99565.48
2019-04-27T00:46:24.636Z,99567.18
2019-04-27T00:48:54.434Z,99567.68
2019-04-27T00:51:24.801Z,99566.66
2019-04-27T00:53:55.087Z,99556.32
2019-04-27T00:56:46.283Z,99557.32
2019-04-27T00:59:44.273Z,99556.03
2019-04-27T01:02:23.283Z,99551.84
2019-04-27T01:04:53.190Z,99560.57
2019-04-27T01:07:24.946Z,99559.77
2019-04-27T01:09:54.385Z,99560.25
2019-04-27T01:12:24.743Z,99554.02
2019-04-27T01:14:54.861Z,99547.12
2019-04-27T01:17:24.473Z,99549.95
2019-04-27T01:19:54.178Z,99549.21
2019-04-27T01:22:23.738Z,99542.24
2019-04-27T01:24:53.895Z,99541.31
2019-04-27T01:27:31.501Z,99540.11
2019-04-27T01:30:01.281Z,99534.66
2019-04-27T01:32:33.860Z,99533.80
2019-04-27T01:35:02.752Z,99530.07
2019-04-27T01:37:32.410Z,99526.48
2019-04-27T01:40:03.283Z,99520.44
2019-04-27T01:42:33.028Z,99526.36
2019-04-27T01:45:03.242Z,99521.66
2019-04-27T01:47:32.894Z,99519.75
2019-04-27T01:50:03.548Z,99509.03
2019-04-27T01:52:33.132Z,99507.20
2019-04-27T01:55:03.385Z,99510.81
2019-04-27T01:57:33.078Z,99505.13
2019-04-27T02:00:02.773Z,99499.13
2019-04-27T02:02:45.098Z,99502.98
2019-04-27T02:05:33.403Z,99499.02
2019-04-27T02:08:03.396Z,99495.91
2019-04-27T02:10:33.294Z,99490.48
2019-04-27T02:13:02.984Z,99487.84
2019-04-27T02:15:32.769Z,99486.53
2019-04-27T02:18:02.609Z,99484.84
2019-04-27T02:20:32.317Z,99485.09
2019-04-27T02:23:01.894Z,99489.77
2019-04-27T02:25:31.740Z,99481.36
2019-04-27T02:28:12.166Z,99488.09
2019-04-27T02:31:01.637Z,99485.09
2019-04-27T02:33:40.357Z,99480.15
2019-04-27T02:36:14.967Z,99475.47
2019-04-27T02:38:41.593Z,99474.38
2019-04-27T02:41:11.445Z,99474.03
2019-04-27T02:43:46.391Z,99472.08
2019-04-27T02:46:15.842Z,99460.78
2019-04-27T02:48:58.893Z,99474.95
2019-04-27T02:51:22.713Z,99474.95
2019-04-27T02:53:56.481Z,99466.02
2019-04-27T02:56:26.372Z,99470.83
2019-04-27T02:58:56.211Z,99460.09
2019-04-27T03:01:30.559Z,99454.30
2019-04-27T03:04:00.494Z,99436.09
2019-04-27T03:06:30.440Z,99431.25
2019-04-27T03:09:00.708Z,99452.11
2019-04-27T03:11:32.550Z,99431.53
2019-04-27T03:14:29.327Z,99451.94
2019-04-27T03:17:00.155Z,99439.13
2019-04-27T03:19:43.710Z,99443.30
2019-04-27T03:22:29.542Z,99446.17
2019-04-27T03:25:32.043Z,99446.48
2019-04-27T03:28:10.753Z,99445.13
2019-04-27T03:30:42.420Z,99447.66
2019-04-27T03:33:12.548Z,99444.52
2019-04-27T03:35:43.765Z,99447.05
2019-04-27T03:38:13.715Z,99443.33
2019-04-27T03:40:43.827Z,99446.36
2019-04-27T03:43:19.938Z,99441.08
2019-04-27T03:45:52.493Z,99444.40
2019-04-27T03:48:21.722Z,99438.42
2019-04-27T03:51:20.046Z,99433.62
2019-04-27T03:54:29.635Z,99437.16
2019-04-27T03:57:26.935Z,99438.38
2019-04-27T03:59:59.680Z,99436.36
2019-04-27T04:02:30.538Z,99437.30
2019-04-27T04:05:00.689Z,99433.08
2019-04-27T04:07:30.558Z,99422.81
2019-04-27T04:10:00.559Z,99422.92
2019-04-27T04:12:36.050Z,99416.77
2019-04-27T04:15:09.785Z,99411.49
2019-04-27T04:17:40.243Z,99413.64
2019-04-27T04:20:10.373Z,99413.92
2019-04-27T04:22:40.770Z,99413.55
2019-04-27T04:25:11.060Z,99401.75
2019-04-27T04:27:42.752Z,99408.50
2019-04-27T04:30:12.809Z,99409.44
2019-04-27T04:32:42.556Z,99412.36
2019-04-27T04:35:21.153Z,99408.46
2019-04-27T04:37:52.868Z,99411.45
2019-04-27T04:40:26.914Z,99399.05
2019-04-27T04:43:03.644Z,99391.66
2019-04-27T04:45:59.628Z,99394.23
2019-04-27T04:48:30.199Z,99389.88
2019-04-27T04:51:00.255Z,99376.91
2019-04-27T04:53:30.321Z,99368.53
2019-04-27T04:56:00.479Z,99366.94
2019-04-27T04:58:30.640Z,99373.67
2019-04-27T05:01:01.903Z,99363.19
2019-04-27T05:03:32.301Z,99359.78
2019-04-27T05:06:02.151Z,99360.33
2019-04-27T05:08:31.877Z,99360.31
2019-04-27T05:11:01.513Z,99355.90
2019-04-27T05:13:32.303Z,99352.47
2019-04-27T05:16:02.045Z,99357.89
2019-04-27T05:18:31.691Z,99354.53
2019-04-27T05:21:26.238Z,99349.01
2019-04-27T05:23:55.933Z,99349.95
2019-04-27T05:26:25.595Z,99348.52
2019-04-27T05:28:55.116Z,99347.86
2019-04-27T05:31:24.808Z,99351.23
2019-04-27T05:33:54.611Z,99346.67
2019-04-27T05:36:24.337Z,99352.62
2019-04-27T05:38:53.879Z,99348.38
2019-04-27T05:41:24.055Z,99345.96
2019-04-27T05:44:12.962Z,99347.92
2019-04-27T05:47:05.290Z,99337.44
2019-04-27T05:49:44.403Z,99334.50
2019-04-27T05:52:29.409Z,99329.31
2019-04-27T05:55:00.688Z,99326.92
2019-04-27T05:57:31.437Z,99328.42
2019-04-27T06:00:02.572Z,99327.23
2019-04-27T06:02:33.378Z,99318.02
2019-04-27T06:05:03.090Z,99320.45
2019-04-27T06:07:32.964Z,99314.33
2019-04-27T06:10:02.892Z,99302.66
2019-04-27T06:12:33.094Z,99309.33
2019-04-27T06:15:02.799Z,99310.63
2019-04-27T06:17:32.809Z,99306.97
2019-04-27T06:20:05.010Z,99308.75
2019-04-27T06:22:34.732Z,99304.86
2019-04-27T06:25:07.136Z,99306.90
2019-04-27T06:27:37.273Z,99304.94
2019-04-27T06:30:09.320Z,99304.73
2019-04-27T06:32:39.688Z,99308.48
2019-04-27T06:35:12.849Z,99294.73
2019-04-27T06:37:42.659Z,99292.16
2019-04-27T06:40:12.594Z,99294.25
2019-04-27T06:42:42.524Z,99290.63
2019-04-27T06:45:12.237Z,99298.39
2019-04-27T06:47:42.205Z,99290.24
2019-04-27T06:50:12.189Z,99290.91
2019-04-27T06:52:42.088Z,99282.91
2019-04-27T06:55:12.248Z,99275.09
2019-04-27T06:57:43.017Z,99273.08
2019-04-27T07:00:15.636Z,99274.42
2019-04-27T07:02:45.640Z,99280.26
2019-04-27T07:05:15.763Z,99274.11
2019-04-27T07:07:45.466Z,99275.09
2019-04-27T07:10:15.926Z,99269.26
2019-04-27T07:12:45.805Z,99273.42
2019-04-27T07:15:15.782Z,99268.73
2019-04-27T07:17:45.996Z,99262.05
2019-04-27T07:20:18.796Z,99262.21
2019-04-27T07:22:49.689Z,99260.56
2019-04-27T07:25:20.982Z,99259.47
2019-04-27T07:27:50.787Z,99253.29
2019-04-27T07:30:20.884Z,99251.27
2019-04-27T07:32:50.795Z,99241.25
2019-04-27T07:35:20.783Z,99244.08
2019-04-27T07:37:51.856Z,99239.07
2019-04-27T07:40:22.055Z,99238.56
2019-04-27T07:42:55.894Z,99240.88
2019-04-27T07:45:30.318Z,99244.73
2019-04-27T07:48:00.069Z,99243.09
2019-04-27T07:50:29.706Z,99239.70
2019-04-27T07:52:59.145Z,99237.22
2019-04-27T07:55:29.174Z,99237.88
2019-04-27T07:57:59.499Z,99235.03
2019-04-27T08:00:30.319Z,99226.00
2019-04-27T08:03:00.583Z,99226.84
2019-04-27T08:05:30.744Z,99219.67
2019-04-27T08:08:00.690Z,99214.80
2019-04-27T08:10:30.580Z,99215.98
2019-04-27T08:13:00.815Z,99213.16
2019-04-27T08:15:31.832Z,99211.62
2019-04-27T08:18:01.848Z,99208.94
2019-04-27T08:20:33.178Z,99207.26
2019-04-27T08:23:03.229Z,99202.23
2019-04-27T08:25:33.492Z,99196.39
2019-04-27T08:28:22.399Z,99190.55
2019-04-27T08:31:10.916Z,99191.35
2019-04-27T08:33:41.246Z,99192.35
2019-04-27T08:36:11.173Z,99186.50
2019-04-27T08:38:41.499Z,99183.44
2019-04-27T08:41:11.352Z,99179.54
2019-04-27T08:43:41.774Z,99172.33
2019-04-27T08:46:11.377Z,99173.45
2019-04-27T08:48:41.187Z,99166.16
2019-04-27T08:51:10.836Z,99160.76
2019-04-27T08:53:40.824Z,99155.52
2019-04-27T08:56:10.604Z,99156.92
2019-04-27T08:58:40.507Z,99152.06
2019-04-27T09:01:10.483Z,99147.48
2019-04-27T09:03:40.449Z,99143.39
2019-04-27T09:06:11.999Z,99136.95
2019-04-27T09:09:01.046Z,99132.35
2019-04-27T09:11:51.883Z,99123.52
2019-04-27T09:14:30.403Z,99120.19
2019-04-27T09:17:04.246Z,99121.48
2019-04-27T09:19:40.880Z,99113.43
2019-04-27T09:22:16.086Z,99108.59
2019-04-27T09:24:41.918Z,99104.89
2019-04-27T09:27:12.255Z,99107.77
2019-04-27T09:29:42.109Z,99101.75
2019-04-27T09:32:11.690Z,99099.28
2019-04-27T09:34:41.542Z,99105.28
2019-04-27T09:37:11.158Z,99099.59
2019-04-27T09:39:41.921Z,99096.95
2019-04-27T09:42:12.666Z,99089.72
2019-04-27T09:44:43.371Z,99097.00
2019-04-27T09:47:13.546Z,99086.31
2019-04-27T09:49:43.345Z,99079.88
2019-04-27T09:52:25.696Z,99078.76
2019-04-27T09:54:48.243Z,99075.31
2019-04-27T09:57:19.666Z,99070.66
2019-04-27T09:59:49.647Z,99071.66
2019-04-27T10:02:19.640Z,99069.05
2019-04-27T10:04:49.175Z,99054.05
2019-04-27T10:07:20.204Z,99054.05
2019-04-27T10:09:49.794Z,99043.84
2019-04-27T10:12:19.633Z,99037.59
2019-04-27T10:14:49.120Z,99033.53
2019-04-27T10:17:19.252Z,99032.23
2019-04-27T10:19:49.405Z,99029.58
2019-04-27T10:22:19.388Z,99027.19
2019-04-27T10:24:49.489Z,99031.80
2019-04-27T10:27:20.016Z,99031.30
2019-04-27T10:29:50.729Z,99023.16
2019-04-27T10:32:20.660Z,99021.47
2019-04-27T10:34:50.532Z,99020.20
2019-04-27T10:37:20.204Z,99022.34
2019-04-27T10:39:58.742Z,99013.72
2019-04-27T10:42:28.686Z,99017.03
2019-04-27T10:45:00.001Z,99013.42
2019-04-27T10:54:07.766Z,99007.27
2019-04-27T10:56:38.112Z,98996.84
2019-04-27T10:59:09.726Z,98996.97
2019-04-27T11:01:39.508Z,98987.91
2019-04-27T11:04:25.938Z,98993.52
2019-04-27T11:07:01.678Z,98986.29
2019-04-27T11:09:31.430Z,98981.81
2019-04-27T11:12:01.441Z,98968.84
2019-04-27T11:14:31.436Z,98967.97
2019-04-27T11:17:01.233Z,98972.85
2019-04-27T11:19:35.647Z,98981.70
2019-04-27T11:22:07.436Z,98972.13
2019-04-27T11:24:37.465Z,98968.11
2019-04-27T11:27:07.592Z,98960.30
2019-04-27T11:29:37.408Z,98956.28
2019-04-27T11:32:07.310Z,98952.13
2019-04-27T11:34:55.863Z,98950.83
2019-04-27T11:37:31.019Z,98952.30
2019-04-27T11:40:01.369Z,98952.27
2019-04-27T11:42:34.727Z,98956.30
2019-04-27T11:45:06.458Z,98957.50
2019-04-27T11:47:36.568Z,98951.03
2019-04-27T11:50:10.241Z,98954.03
2019-04-27T11:52:40.320Z,98937.67
2019-04-27T11:55:10.192Z,98936.98
2019-04-27T11:57:40.104Z,98935.14
2019-04-27T12:00:12.359Z,98930.45
2019-04-27T12:02:42.148Z,98932.33
2019-04-27T12:05:12.960Z,98918.99
2019-04-27T12:07:42.807Z,98914.16
2019-04-27T12:10:13.328Z,98915.19
2019-04-27T12:12:43.186Z,98914.53
2019-04-27T12:15:13.090Z,98910.22
2019-04-27T12:17:42.858Z,98901.96
2019-04-27T12:20:12.725Z,98901.23
2019-04-27T12:22:42.544Z,98905.02
2019-04-27T12:25:13.514Z,98898.66
2019-04-27T12:28:05.106Z,98893.38
2019-04-27T12:30:42.179Z,98898.41
2019-04-27T12:33:12.316Z,98888.06
2019-04-27T12:35:42.271Z,98888.16
2019-04-27T12:38:13.225Z,98890.12
2019-04-27T12:40:48.298Z,98888.03
2019-04-27T12:43:22.010Z,98876.50
2019-04-27T12:45:52.442Z,98895.70
2019-04-27T12:48:22.354Z,98878.35
2019-04-27T12:50:51.833Z,98877.50
2019-04-27T12:53:28.887Z,98859.48
2019-04-27T12:56:09.601Z,98874.80
2019-04-27T12:58:44.833Z,98861.58
2019-04-27T13:01:16.300Z,98860.28
2019-04-27T13:03:46.920Z,98862.19
2019-04-27T13:06:17.217Z,98856.50
2019-04-27T13:08:46.720Z,98844.00
2019-04-27T13:11:16.354Z,98845.09
2019-04-27T13:13:48.507Z,98841.96
2019-04-27T13:16:19.164Z,98830.58
2019-04-27T13:18:48.514Z,98834.25
2019-04-27T13:21:20.776Z,98826.35
2019-04-27T13:24:01.206Z,98824.44
2019-04-27T13:26:21.161Z,98822.13
2019-04-27T13:28:50.867Z,98829.77
2019-04-27T13:31:21.172Z,98832.00
2019-04-27T13:33:50.728Z,98816.55
2019-04-27T13:36:20.055Z,98823.33
2019-04-27T13:38:49.821Z,98826.72
2019-04-27T13:41:30.247Z,98828.38
2019-04-27T13:43:51.997Z,98815.55
2019-04-27T13:46:52.906Z,98810.44
2019-04-27T13:49:51.715Z,98808.93
2019-04-27T13:52:23.885Z,98800.73
2019-04-27T13:54:53.443Z,98803.31
2019-04-27T13:57:23.021Z,98797.81
2019-04-27T13:59:52.576Z,98795.59
2019-04-27T14:02:24.315Z,98787.53
2019-04-27T14:04:54.545Z,98781.21
2019-04-27T14:07:26.521Z,98783.38
2019-04-27T14:09:55.278Z,98776.75
2019-04-27T14:12:24.864Z,98770.39
2019-04-27T14:14:55.024Z,98771.09
2019-04-27T14:17:26.341Z,98773.30
2019-04-27T14:19:56.044Z,98769.12
2019-04-27T14:22:25.466Z,98766.81
2019-04-27T14:24:54.942Z,98765.77
2019-04-27T14:27:27.897Z,98761.52
2019-04-27T14:29:59.542Z,98756.59
2019-04-27T14:32:29.644Z,98761.20
2019-04-27T14:34:59.288Z,98744.68
2019-04-27T14:37:29.036Z,98749.91
2019-04-27T14:39:59.752Z,98753.52
2019-04-27T14:42:29.671Z,98751.05
2019-04-27T14:44:59.520Z,98743.53
2019-04-27T14:47:29.582Z,98741.48
2019-04-27T14:50:02.554Z,98745.86
2019-04-27T14:52:32.615Z,98736.26
2019-04-27T14:55:02.409Z,98729.45
2019-04-27T14:57:32.151Z,98736.91
2019-04-27T15:00:03.594Z,98735.35
2019-04-27T15:02:33.421Z,98729.85
2019-04-27T15:05:03.166Z,98733.43
2019-04-27T15:07:34.131Z,98728.56
2019-04-27T15:10:04.787Z,98722.83
2019-04-27T15:12:37.745Z,98724.05
2019-04-27T15:15:08.003Z,98719.83
2019-04-27T15:17:40.094Z,98721.56
2019-04-27T15:20:13.731Z,98719.55
2019-04-27T15:22:45.115Z,98696.16
2019-04-27T15:25:15.786Z,98696.16
2019-04-27T15:27:50.604Z,98712.56
2019-04-27T15:30:26.633Z,98709.02
2019-04-27T15:33:18.132Z,98710.95
2019-04-27T15:35:56.118Z,98709.02
2019-04-27T15:38:29.063Z,98700.87
2019-04-27T15:41:12.230Z,98707.70
2019-04-27T15:43:43.060Z,98703.18
2019-04-27T15:46:13.150Z,98698.64
2019-04-27T15:48:43.852Z,98705.55
2019-04-27T15:51:19.901Z,98702.11
2019-04-27T15:53:50.767Z,98706.33
2019-04-27T15:56:21.557Z,98703.06
2019-04-27T15:58:50.405Z,98698.57
2019-04-27T16:01:20.689Z,98699.28
2019-04-27T16:03:52.194Z,98689.59
2019-04-27T16:06:22.478Z,98696.11
2019-04-27T16:08:52.241Z,98699.48
2019-04-27T16:11:23.952Z,98695.05
2019-04-27T16:13:53.691Z,98699.48
2019-04-27T16:16:29.123Z,98697.16
2019-04-27T16:18:59.431Z,98697.98
2019-04-27T16:21:31.544Z,98697.41
2019-04-27T16:24:02.359Z,98697.90
2019-04-27T16:26:32.178Z,98696.66
2019-04-27T16:29:02.137Z,98691.70
2019-04-27T16:31:33.759Z,98691.97
2019-04-27T16:34:03.610Z,98694.16
2019-04-27T16:36:33.435Z,98694.56
2019-04-27T16:39:08.363Z,98690.13
2019-04-27T16:41:41.982Z,98687.63
2019-04-27T16:44:11.472Z,98688.83
2019-04-27T16:46:42.960Z,98686.52
2019-04-27T16:49:15.035Z,98687.89
2019-04-27T16:51:46.138Z,98684.41
2019-04-27T16:54:18.269Z,98683.81
2019-04-27T16:56:52.294Z,98683.22
2019-04-27T16:59:39.610Z,98674.95
2019-04-27T17:01:50.907Z,98685.49
2019-04-27T17:04:20.788Z,98687.22
2019-04-27T17:06:50.632Z,98682.28
2019-04-27T17:09:23.157Z,98674.44
2019-04-27T17:11:53.082Z,98676.47
2019-04-27T17:14:42.379Z,98679.87
2019-04-27T17:17:38.561Z,98676.59
2019-04-27T17:20:13.072Z,98671.94
2019-04-27T17:22:40.451Z,98670.31
2019-04-27T17:25:11.473Z,98669.00
2019-04-27T17:27:57.858Z,98663.70
2019-04-27T17:30:32.456Z,98666.27
2019-04-27T17:33:10.165Z,98661.30
2019-04-27T17:35:42.498Z,98658.50
2019-04-27T17:38:12.307Z,98662.38
2019-04-27T17:40:40.102Z,98660.57
2019-04-27T17:43:10.608Z,98661.94
2019-04-27T17:45:40.586Z,98656.12
2019-04-27T17:48:10.844Z,98658.66
2019-04-27T17:50:41.133Z,98651.56
2019-04-27T17:53:11.160Z,98647.41
2019-04-27T17:55:40.854Z,98653.24
2019-04-27T17:58:13.421Z,98657.61
2019-04-27T18:00:44.620Z,98653.47
2019-04-27T18:03:21.070Z,98650.45
2019-04-27T18:05:52.053Z,98653.61
2019-04-27T18:08:25.034Z,98649.09
2019-04-27T18:10:57.537Z,98644.45
2019-04-27T18:13:26.466Z,98643.12
2019-04-27T18:15:58.997Z,98643.11
2019-04-27T18:18:44.674Z,98640.29
2019-04-27T18:21:15.205Z,98639.61
2019-04-27T18:23:52.307Z,98630.81
2019-04-27T18:26:49.381Z,98630.30
2019-04-27T18:29:14.643Z,98624.48
2019-04-27T18:31:46.404Z,98625.17
2019-04-27T18:34:16.985Z,98621.83
2019-04-27T18:36:46.463Z,98616.82
2019-04-27T18:39:16.089Z,98620.17
2019-04-27T18:41:53.890Z,98618.67
2019-04-27T18:44:23.859Z,98619.52
2019-04-27T18:46:58.865Z,98620.84
2019-04-27T18:49:38.657Z,98616.33
2019-04-27T18:52:30.636Z,98612.66
2019-04-27T18:55:01.030Z,98606.52
2019-04-27T18:57:34.605Z,98597.37
2019-04-27T19:00:05.371Z,98598.54
2019-04-27T19:02:36.530Z,98598.86
2019-04-27T19:05:08.863Z,98594.19
2019-04-27T19:07:38.648Z,98591.87
2019-04-27T19:10:09.084Z,98590.87
2019-04-27T19:12:39.490Z,98587.20
2019-04-27T19:15:09.779Z,98590.03
2019-04-27T19:17:39.608Z,98584.05
2019-04-27T19:20:10.477Z,98586.39
2019-04-27T19:22:40.478Z,98577.07
2019-04-27T19:25:12.906Z,98577.56
2019-04-27T19:27:58.338Z,98574.25
2019-04-27T19:30:35.688Z,98571.58
2019-04-27T19:33:07.644Z,98567.75
2019-04-27T19:35:38.237Z,98567.91
2019-04-27T19:38:08.365Z,98565.58
2019-04-27T19:40:38.148Z,98562.55
2019-04-27T19:43:10.199Z,98565.86
2019-04-27T19:45:39.835Z,98567.72
2019-04-27T19:48:10.613Z,98558.23
2019-04-27T19:50:41.132Z,98558.22
2019-04-27T19:53:10.865Z,98556.89
2019-04-27T19:55:43.567Z,98557.38
2019-04-27T19:58:19.677Z,98546.73
2019-04-27T20:01:11.538Z,98550.73
2019-04-27T20:03:38.669Z,98546.58
2019-04-27T20:06:08.446Z,98547.06
2019-04-27T20:08:40.719Z,98539.25
2019-04-27T20:11:10.455Z,98538.44
2019-04-27T20:13:41.378Z,98540.25
2019-04-27T20:16:11.333Z,98538.92
2019-04-27T20:18:43.284Z,98542.27
2019-04-27T20:21:12.897Z,98536.42
2019-04-27T20:23:43.149Z,98534.77
2019-04-27T20:26:15.086Z,98532.10
2019-04-27T20:28:45.402Z,98534.44
2019-04-27T20:31:17.414Z,98527.47
2019-04-27T20:33:48.459Z,98530.13
2019-04-27T20:36:21.273Z,98530.61
2019-04-27T20:38:50.996Z,98545.77
2019-04-27T20:41:21.904Z,98548.27
2019-04-27T20:43:51.610Z,98552.95
2019-04-27T20:46:22.754Z,98559.56
2019-04-27T20:48:52.645Z,98565.25
2019-04-27T20:51:43.394Z,98559.38
2019-04-27T20:54:12.559Z,98559.88
2019-04-27T20:56:42.385Z,98557.53
2019-04-27T20:59:15.109Z,98561.36
2019-04-27T21:01:44.758Z,98557.52
2019-04-27T21:04:20.859Z,98556.52
2019-04-27T21:06:54.125Z,98551.35
2019-04-27T21:09:23.874Z,98549.48
2019-04-27T21:11:53.536Z,98544.98
2019-04-27T21:14:25.441Z,98555.73
2019-04-27T21:16:55.100Z,98557.21
2019-04-27T21:19:24.854Z,98551.23
2019-04-27T21:21:54.544Z,98556.39
2019-04-27T21:24:26.716Z,98553.40
2019-04-27T21:26:56.321Z,98555.48
2019-04-27T21:29:26.372Z,98556.82
2019-04-27T21:31:56.109Z,98561.63
2019-04-27T21:34:25.689Z,98567.80
2019-04-27T21:36:55.489Z,98564.62
2019-04-27T21:39:25.839Z,98566.11
2019-04-27T21:41:55.649Z,98568.74
2019-04-27T21:44:25.310Z,98562.75
2019-04-27T21:46:54.990Z,98557.09
2019-04-27T21:49:24.764Z,98563.20
2019-04-27T21:52:14.541Z,98560.03
2019-04-27T21:54:44.397Z,98562.69
2019-04-27T21:57:14.541Z,98563.00
2019-04-27T21:59:44.213Z,98558.69
2019-04-27T22:02:16.484Z,98571.79
2019-04-27T22:04:46.261Z,98563.82
2019-04-27T22:07:16.333Z,98565.45
2019-04-27T22:09:46.318Z,98560.97
2019-04-27T22:12:16.321Z,98558.44
2019-04-27T22:14:45.963Z,98568.70
2019-04-27T22:17:18.705Z,98569.16
2019-04-27T22:19:48.528Z,98579.58
2019-04-27T22:22:26.109Z,98579.52
2019-04-27T22:25:05.799Z,98599.91
2019-04-27T22:27:35.708Z,98574.27
2019-04-27T22:30:07.401Z,98576.23
2019-04-27T22:32:37.441Z,98574.36
2019-04-27T22:35:07.836Z,98579.59
2019-04-27T22:37:37.812Z,98580.56
2019-04-27T22:40:25.603Z,98585.35
2019-04-27T22:43:18.306Z,98574.67
2019-04-27T22:45:48.474Z,98578.23
2019-04-27T22:48:18.430Z,98590.95
2019-04-27T22:50:48.240Z,98579.27
2019-04-27T22:53:18.038Z,98587.14
2019-04-27T22:56:13.533Z,98582.42
2019-04-27T22:58:57.564Z,98583.98
2019-04-27T23:01:29.230Z,98580.92
2019-04-27T23:04:01.898Z,98576.23
2019-04-27T23:06:32.761Z,98583.75
2019-04-27T23:09:02.830Z,98571.74
2019-04-27T23:11:34.045Z,98571.74
2019-04-27T23:14:03.655Z,98590.90
2019-04-27T23:16:35.281Z,98597.30
2019-04-27T23:19:06.071Z,98599.13
2019-04-27T23:21:38.418Z,98603.78
2019-04-27T23:24:08.156Z,98574.77
2019-04-27T23:26:37.907Z,98574.77
2019-04-27T23:29:13.677Z,98615.03
2019-04-27T23:31:45.442Z,98617.31
2019-04-27T23:34:15.058Z,98622.13
2019-04-27T23:36:44.942Z,98623.59
2019-04-27T23:39:14.956Z,98623.59
2019-04-27T23:41:44.698Z,98635.72
2019-04-27T23:44:14.479Z,98627.58
2019-04-27T23:46:44.504Z,98634.98
2019-04-27T23:49:14.229Z,98644.73
2019-04-27T23:51:52.399Z,98652.35
2019-04-27T23:54:23.256Z,98653.81
2019-04-27T23:56:52.881Z,98667.15
2019-04-27T23:59:25.000Z,98678.53
